createdAt,value
2023-03-22T00:04:38.511Z,5.32
2023-03-22T00:19:33.055Z,4.54
2023-03-22T00:34:25.840Z,4.08
2023-03-22T00:49:16.552Z,4.27
2023-03-22T01:04:07.061Z,4.08
2023-03-22T01:18:58.401Z,3.51
2023-03-22T01:33:49.663Z,3.72
2023-03-22T01:48:43.394Z,3.71
2023-03-22T02:03:43.382Z,3.72
2023-03-22T02:18:57.246Z,3.82
2023-03-22T02:34:17.046Z,3.49
2023-03-22T02:49:16.724Z,3.19
2023-03-22T03:04:10.934Z,3.33
2023-03-22T03:19:17.246Z,3.18
2023-03-22T03:34:13.103Z,3.16
2023-03-22T03:49:03.352Z,3.31
2023-03-22T04:03:54.974Z,3.04
2023-03-22T04:18:45.750Z,3.36
2023-03-22T04:33:36.732Z,3.10
2023-03-22T04:48:28.264Z,2.99
2023-03-22T05:03:18.742Z,3.12
2023-03-22T05:18:08.341Z,3.11
2023-03-22T05:32:59.189Z,2.94
2023-03-22T05:47:49.841Z,3.48
2023-03-22T06:02:40.417Z,3.30
2023-03-22T06:17:31.514Z,3.39
2023-03-22T06:32:23.427Z,3.43
2023-03-22T06:47:14.689Z,3.24
2023-03-22T07:02:06.841Z,3.70
2023-03-22T07:16:59.375Z,3.41
2023-03-22T07:31:50.769Z,3.77
2023-03-22T07:46:43.734Z,3.03
2023-03-22T08:01:36.889Z,2.33
2023-03-22T08:16:30.803Z,2.30
2023-03-22T08:31:23.544Z,2.04
2023-03-22T08:46:15.884Z,1.61
2023-03-22T09:01:08.482Z,1.80
2023-03-22T09:15:59.502Z,1.10
2023-03-22T09:30:51.185Z,1.41
2023-03-22T09:45:43.737Z,1.20
2023-03-22T10:00:38.710Z,1.08
2023-03-22T10:15:36.767Z,0.81
2023-03-22T10:30:31.761Z,0.96
2023-03-22T10:45:24.087Z,1.04
2023-03-22T11:00:16.135Z,0.90
2023-03-22T11:15:07.859Z,1.02
2023-03-22T11:30:23.120Z,1.26
2023-03-22T11:45:29.766Z,1.00
2023-03-22T12:00:31.323Z,1.12
2023-03-22T12:15:30.181Z,0.82
2023-03-22T12:30:25.384Z,1.10
2023-03-22T12:45:16.133Z,1.36
2023-03-22T13:15:13.479Z,1.50
2023-03-22T13:30:22.122Z,1.33
2023-03-22T13:45:34.010Z,1.30
2023-03-22T14:00:36.744Z,1.20
2023-03-22T14:15:30.435Z,1.26
2023-03-22T15:00:36.889Z,1.09
2023-03-22T15:15:26.724Z,1.30
2023-03-22T15:45:19.236Z,1.30
2023-03-22T16:00:24.042Z,1.10
2023-03-22T16:15:20.169Z,1.40
2023-03-22T16:30:12.395Z,1.39
2023-03-22T16:45:04.139Z,1.26
2023-03-22T16:59:55.542Z,1.39
2023-03-22T17:14:45.497Z,1.51
2023-03-22T17:29:36.272Z,1.70
2023-03-22T17:44:27.850Z,1.33
2023-03-22T18:14:21.119Z,1.66
2023-03-22T18:29:02.217Z,5.84
2023-03-22T18:43:52.825Z,2.60
2023-03-22T19:13:40.162Z,2.54
2023-03-22T19:28:28.069Z,1.97
2023-03-22T19:43:19.393Z,1.77
2023-03-22T19:58:09.968Z,2.34
2023-03-22T20:13:01.400Z,2.10
2023-03-22T20:42:59.764Z,1.59
2023-03-22T20:57:51.393Z,2.69
2023-03-22T21:12:43.011Z,2.27
2023-03-22T21:27:35.049Z,2.08
2023-03-22T21:42:26.251Z,2.41
2023-03-22T21:57:17.436Z,2.42
2023-03-22T22:12:11.115Z,1.86
2023-03-22T22:27:02.949Z,1.40
2023-03-22T22:41:54.712Z,1.00
2023-03-22T22:56:47.715Z,0.90
2023-03-22T23:11:38.609Z,0.80
2023-03-22T23:26:30.082Z,0.90
2023-03-22T23:41:22.846Z,0.80
2023-03-22T23:56:13.296Z,1.10
